Time;durP1;ratioP1;P1;durP2;ratioP2;P2;SDS_P1;SDS_P2;PMS_P1;PMS_P2;Temp;Humidity;BMP_temperature;BMP_pressure;BME280_temperature;BME280_humidity;BME280_pressure;Samples;Min_cycle;Max_cycle;Signal;HPM_P1;HPM_P2
2022/11/20 00:04:26;;;;;;;34.07;19.13;;;;;2.90;100719.00;;;;10442716;28;20193;-77
2022/11/20 00:09:28;;;;;;;38.47;20.03;;;;;2.90;100717.00;;;;10426424;28;20688;-77
2022/11/20 00:14:30;;;;;;;36.77;18.83;;;;;2.80;100722.00;;;;10442447;28;20208;-77
2022/11/20 00:19:32;;;;;;;34.67;18.33;;;;;2.80;100733.00;;;;10463761;28;20698;-77
2022/11/20 00:24:34;;;;;;;40.77;18.83;;;;;2.90;100730.00;;;;10467303;28;20311;-77
2022/11/20 00:29:43;;;;;;;39.53;19.70;;;;;2.90;100726.00;;;;10451617;28;20194;-77
2022/11/20 00:34:45;;;;;;;39.27;19.23;;;;;2.80;100722.00;;;;10436904;28;20256;-76
2022/11/20 00:39:47;;;;;;;42.17;20.63;;;;;2.80;100727.00;;;;10467660;28;20221;-77
2022/11/20 00:44:49;;;;;;;48.07;21.43;;;;;2.80;100726.00;;;;10450211;28;20189;-77
2022/11/20 00:49:50;;;;;;;41.13;19.47;;;;;2.80;100708.00;;;;10449825;28;20182;-77
2022/11/20 00:54:52;;;;;;;39.53;19.10;;;;;2.80;100715.00;;;;10432606;28;20670;-77
2022/11/20 00:59:54;;;;;;;38.47;19.63;;;;;2.80;100716.00;;;;10448676;28;20221;-77
2022/11/20 01:04:56;;;;;;;36.00;17.87;;;;;2.90;100706.00;;;;10467099;28;20205;-77
2022/11/20 01:09:57;;;;;;;37.93;18.50;;;;;2.80;100721.00;;;;10424201;28;20659;-77
2022/11/20 01:14:59;;;;;;;44.97;20.70;;;;;2.80;100722.00;;;;10424533;28;20511;-77
2022/11/20 01:20:02;;;;;;;34.80;19.07;;;;;2.80;100723.00;;;;10416789;28;20210;-76
2022/11/20 01:25:04;;;;;;;38.63;20.63;;;;;2.80;100717.00;;;;10464217;28;20216;-77
2022/11/20 01:30:06;;;;;;;41.53;19.50;;;;;2.80;100717.00;;;;10499774;28;20302;-76
2022/11/20 01:35:09;;;;;;;51.93;20.90;;;;;2.80;100709.00;;;;10474224;28;20309;-77
2022/11/20 01:40:11;;;;;;;46.33;20.37;;;;;2.80;100724.00;;;;10483151;28;20213;-77
2022/11/20 01:45:50;;;;;;;42.67;19.60;;;;;2.80;100713.00;;;;10482987;28;20185;-76
2022/11/20 01:50:53;;;;;;;42.70;19.80;;;;;2.80;100714.00;;;;10483071;28;20264;-77
2022/11/20 01:55:58;;;;;;;38.53;19.80;;;;;2.80;100722.00;;;;10482602;28;20181;-77
2022/11/20 02:01:00;;;;;;;37.80;18.90;;;;;2.70;100708.00;;;;10465522;28;20217;-74
2022/11/20 02:06:25;;;;;;;39.40;20.60;;;;;2.80;100708.00;;;;10481419;28;20805;-74
2022/11/20 02:11:27;;;;;;;39.73;19.23;;;;;2.80;100712.00;;;;10448360;28;20193;-74
2022/11/20 02:16:36;;;;;;;43.60;20.80;;;;;2.80;100718.00;;;;10480831;28;20197;-75
2022/11/20 02:22:00;;;;;;;47.93;20.40;;;;;2.80;100706.00;;;;10480528;28;20209;-74
2022/11/20 02:27:09;;;;;;;57.80;24.10;;;;;2.80;100701.00;;;;10463529;28;20212;-74
2022/11/20 02:32:37;;;;;;;50.20;23.03;;;;;2.80;100709.00;;;;10497688;28;20664;-74
2022/11/20 02:37:40;;;;;;;45.50;23.33;;;;;2.90;100702.00;;;;10477032;28;20757;-74
2022/11/20 02:42:42;;;;;;;49.13;23.97;;;;;2.90;100702.00;;;;10462794;28;20190;-74
2022/11/20 02:47:44;;;;;;;47.97;23.23;;;;;2.90;100691.00;;;;10462642;28;20197;-74
2022/11/20 02:52:46;;;;;;;50.43;22.57;;;;;2.90;100683.00;;;;10497336;28;20171;-74
2022/11/20 02:57:48;;;;;;;55.50;25.30;;;;;2.90;100684.00;;;;10479026;28;20198;-74
2022/11/20 03:02:50;;;;;;;57.30;25.77;;;;;2.90;100679.00;;;;10429720;28;20709;-74
2022/11/20 03:07:51;;;;;;;60.20;27.03;;;;;2.90;100659.00;;;;10496492;28;20718;-74
2022/11/20 03:12:55;;;;;;;65.33;26.00;;;;;3.00;100670.00;;;;10496640;28;20193;-74
2022/11/20 03:17:57;;;;;;;56.40;24.77;;;;;3.00;100670.00;;;;10461786;28;20209;-75
2022/11/20 03:22:58;;;;;;;56.03;25.10;;;;;3.00;100663.00;;;;10444613;28;20193;-74
2022/11/20 03:28:00;;;;;;;55.70;24.77;;;;;3.00;100654.00;;;;10495574;28;20189;-74
2022/11/20 03:33:02;;;;;;;50.70;24.17;;;;;3.00;100660.00;;;;10460638;28;20193;-74
2022/11/20 03:38:04;;;;;;;51.60;23.77;;;;;3.00;100657.00;;;;10477445;28;20209;-74
2022/11/20 03:43:06;;;;;;;42.80;18.93;;;;;3.00;100660.00;;;;10461034;28;20189;-74
2022/11/20 03:48:08;;;;;;;47.07;19.97;;;;;3.00;100651.00;;;;10444113;28;20196;-74
2022/11/20 03:53:10;;;;;;;45.53;18.73;;;;;3.00;100646.00;;;;10460716;28;20178;-74
2022/11/20 03:58:13;;;;;;;45.73;18.20;;;;;3.00;100646.00;;;;10444124;28;20228;-74
2022/11/20 04:03:15;;;;;;;40.67;17.47;;;;;3.00;100633.00;;;;10460815;28;20235;-74
2022/11/20 04:08:17;;;;;;;32.80;15.87;;;;;3.00;100620.00;;;;10476963;28;20223;-74
2022/11/20 04:13:19;;;;;;;36.63;16.73;;;;;2.90;100612.00;;;;10477118;28;20209;-74
2022/11/20 04:18:20;;;;;;;31.27;14.00;;;;;2.80;100604.00;;;;10435284;28;20573;-74
2022/11/20 04:23:22;;;;;;;31.70;14.20;;;;;2.60;100619.00;;;;10448056;28;20193;-74
2022/11/20 04:28:29;;;;;;;30.33;14.23;;;;;2.50;100613.00;;;;10419150;28;20197;-74
2022/11/20 04:33:31;;;;;;;31.60;13.60;;;;;2.40;100616.00;;;;10417494;28;20213;-74
2022/11/20 04:38:35;;;;;;;34.67;14.40;;;;;2.40;100621.00;;;;10418748;28;20202;-74
2022/11/20 04:43:37;;;;;;;32.40;15.00;;;;;2.40;100613.00;;;;10457010;28;20202;-74
2022/11/20 04:48:39;;;;;;;35.57;15.03;;;;;2.50;100607.00;;;;10459587;28;20182;-74
2022/11/20 04:53:41;;;;;;;38.60;14.43;;;;;2.60;100614.00;;;;10443003;28;20229;-74
2022/11/20 04:58:43;;;;;;;40.23;16.50;;;;;2.70;100619.00;;;;10442481;28;20308;-74
2022/11/20 05:03:45;;;;;;;46.00;17.43;;;;;2.70;100608.00;;;;10475454;28;20190;-74
2022/11/20 05:08:48;;;;;;;40.80;16.43;;;;;2.80;100611.00;;;;10464568;28;20267;-74
2022/11/20 05:13:51;;;;;;;43.23;15.67;;;;;2.90;100605.00;;;;10483024;28;20203;-74
2022/11/20 05:18:54;;;;;;;45.83;17.07;;;;;3.00;100612.00;;;;10430131;28;20209;-74
2022/11/20 05:23:56;;;;;;;39.93;15.70;;;;;3.00;100616.00;;;;10440924;28;20663;-74
2022/11/20 05:28:58;;;;;;;36.77;15.70;;;;;3.10;100613.00;;;;10441422;28;20231;-74
2022/11/20 05:34:00;;;;;;;42.67;17.03;;;;;3.20;100616.00;;;;10415599;28;20212;-75
2022/11/20 05:39:02;;;;;;;41.40;16.73;;;;;3.20;100610.00;;;;10499856;28;20223;-75
2022/11/20 05:44:04;;;;;;;32.00;14.57;;;;;3.20;100594.00;;;;10465038;28;20190;-74
2022/11/20 05:49:06;;;;;;;40.53;16.07;;;;;3.20;100580.00;;;;10465116;28;20632;-75
2022/11/20 05:54:07;;;;;;;34.83;15.87;;;;;3.20;100575.00;;;;10482060;28;20193;-75
2022/11/20 05:59:09;;;;;;;46.13;18.20;;;;;3.10;100582.00;;;;10447956;28;20216;-75
2022/11/20 06:04:11;;;;;;;40.80;16.73;;;;;3.10;100594.00;;;;10439394;28;20202;-75
2022/11/20 06:09:13;;;;;;;45.60;18.90;;;;;3.20;100580.00;;;;10423069;28;20210;-75
2022/11/20 06:14:14;;;;;;;48.33;19.63;;;;;3.20;100574.00;;;;10439226;28;20464;-75
2022/11/20 06:19:16;;;;;;;48.47;19.27;;;;;3.30;100568.00;;;;10463674;28;20260;-75
2022/11/20 06:24:18;;;;;;;42.63;18.07;;;;;3.30;100559.00;;;;10463832;28;20185;-75
2022/11/20 06:29:20;;;;;;;53.73;21.47;;;;;3.30;100552.00;;;;10463705;28;20676;-75
2022/11/20 06:34:22;;;;;;;65.50;21.60;;;;;3.30;100558.00;;;;10446889;28;20205;-75
2022/11/20 06:39:24;;;;;;;50.20;19.33;;;;;3.40;100563.00;;;;10479683;28;20209;-75
2022/11/20 06:44:26;;;;;;;65.60;20.70;;;;;3.40;100570.00;;;;10463153;28;20559;-75
2022/11/20 06:49:28;;;;;;;60.63;20.53;;;;;3.50;100575.00;;;;10497830;28;20269;-75
2022/11/20 06:54:30;;;;;;;67.00;19.63;;;;;3.60;100563.00;;;;10479061;28;20190;-75
2022/11/20 06:59:32;;;;;;;66.30;18.03;;;;;3.60;100567.00;;;;10445524;28;20198;-75
2022/11/20 07:04:33;;;;;;;65.60;20.57;;;;;3.70;100564.00;;;;10461931;28;20656;-75
2022/11/20 07:09:35;;;;;;;66.13;19.57;;;;;3.70;100564.00;;;;10495959;28;20738;-75
2022/11/20 07:14:37;;;;;;;74.10;20.70;;;;;3.70;100570.00;;;;10477878;28;20190;-75
2022/11/20 07:19:39;;;;;;;76.40;21.40;;;;;3.80;100565.00;;;;10461464;28;20263;-75
2022/11/20 07:24:41;;;;;;;74.17;20.57;;;;;3.80;100560.00;;;;10477736;28;20216;-75
2022/11/20 07:29:47;;;;;;;70.33;21.43;;;;;3.90;100560.00;;;;10477287;28;20177;-75
2022/11/20 07:34:49;;;;;;;67.10;21.53;;;;;4.00;100566.00;;;;10463470;28;20187;-75
2022/11/20 07:39:50;;;;;;;76.70;23.70;;;;;4.20;100561.00;;;;10435885;28;20237;-74
2022/11/20 07:44:52;;;;;;;75.83;24.60;;;;;4.20;100564.00;;;;10419854;28;20182;-75
2022/11/20 07:49:54;;;;;;;79.30;20.63;;;;;4.30;100556.00;;;;10419320;28;20653;-75
2022/11/20 07:54:56;;;;;;;79.43;22.03;;;;;4.30;100541.00;;;;10453424;28;20244;-75
2022/11/20 07:59:58;;;;;;;87.07;23.33;;;;;4.40;100541.00;;;;10423368;28;20218;-75
2022/11/20 08:04:59;;;;;;;74.63;22.57;;;;;4.50;100531.00;;;;10435241;28;20198;-74
2022/11/20 08:10:02;;;;;;;80.77;23.30;;;;;4.60;100544.00;;;;10418693;28;20185;-75
2022/11/20 08:15:04;;;;;;;77.00;22.43;;;;;4.60;100554.00;;;;10431994;28;20692;-75
2022/11/20 08:20:13;;;;;;;96.67;24.77;;;;;4.80;100539.00;;;;10477057;28;20209;-74
2022/11/20 08:25:15;;;;;;;84.43;24.43;;;;;5.00;100523.00;;;;10494115;28;20186;-75
2022/11/20 08:30:17;;;;;;;85.93;23.83;;;;;5.20;100525.00;;;;10476203;28;20205;-75
2022/11/20 08:35:20;;;;;;;77.57;23.47;;;;;5.40;100522.00;;;;10493980;28;20197;-75
2022/11/20 08:40:22;;;;;;;82.67;23.37;;;;;5.40;100522.00;;;;10459932;28;20240;-75
2022/11/20 08:45:24;;;;;;;85.50;24.33;;;;;5.60;100516.00;;;;10468266;28;20208;-75
2022/11/20 08:50:32;;;;;;;81.80;24.33;;;;;5.60;100521.00;;;;10466410;28;20330;-75
2022/11/20 08:55:36;;;;;;;88.67;24.60;;;;;5.70;100509.00;;;;10501883;28;20181;-75
2022/11/20 09:00:38;;;;;;;90.57;23.93;;;;;5.70;100505.00;;;;10466676;28;20569;-75
2022/11/20 09:05:40;;;;;;;67.90;21.03;;;;;5.80;100495.00;;;;10450555;28;20541;-75
2022/11/20 09:10:42;;;;;;;80.50;22.87;;;;;6.00;100492.00;;;;10448234;28;20243;-75
2022/11/20 09:15:44;;;;;;;78.10;24.40;;;;;6.10;100496.00;;;;10450062;28;20194;-75
2022/11/20 09:20:46;;;;;;;78.97;22.87;;;;;6.20;100494.00;;;;10482837;28;20259;-75
2022/11/20 09:25:48;;;;;;;75.00;23.33;;;;;6.40;100467.00;;;;10483040;28;20296;-75
2022/11/20 09:30:50;;;;;;;76.60;21.37;;;;;6.60;100480.00;;;;10449796;28;20194;-75
2022/11/20 09:35:52;;;;;;;70.37;22.67;;;;;6.70;100464.00;;;;10465965;28;20194;-75
2022/11/20 09:40:58;;;;;;;74.27;20.43;;;;;6.70;100451.00;;;;10465917;28;20221;-75
2022/11/20 09:46:20;;;;;;;67.37;20.63;;;;;6.90;100444.00;;;;10465889;28;20193;-75
2022/11/20 09:51:45;;;;;;;63.73;19.70;;;;;7.10;100447.00;;;;10482029;28;20189;-75
2022/11/20 09:56:56;;;;;;;67.60;20.90;;;;;7.20;100449.00;;;;10499322;28;20193;-75
2022/11/20 10:01:59;;;;;;;55.87;19.77;;;;;7.30;100445.00;;;;10432682;28;20248;-75
2022/11/20 10:07:21;;;;;;;61.47;22.43;;;;;7.40;100440.00;;;;10424291;28;20684;-75
2022/11/20 10:12:57;;;;;;;61.40;19.97;;;;;7.60;100426.00;;;;10423288;28;20178;-75
2022/11/20 10:18:11;;;;;;;53.23;19.27;;;;;7.70;100419.00;;;;10467777;28;20284;-75
2022/11/20 10:23:16;;;;;;;57.60;21.10;;;;;7.80;100411.00;;;;10445575;28;20197;-75
2022/11/20 10:28:30;;;;;;;60.50;19.83;;;;;7.90;100391.00;;;;10407307;28;20198;-75
2022/11/20 10:33:39;;;;;;;52.37;19.20;;;;;8.20;100379.00;;;;10406629;28;20198;-75
2022/11/20 10:39:07;;;;;;;46.47;17.10;;;;;8.50;100372.00;;;;10405769;28;20198;-75
2022/11/20 10:45:00;;;;;;;47.50;16.53;;;;;8.70;100354.00;;;;10442963;28;20284;-75
2022/11/20 10:49:41;;;;;;;35.97;14.37;;;;;8.90;100347.00;;;;10462879;28;20277;-75
2022/11/20 10:55:22;;;;;;;38.80;14.10;;;;;9.40;100322.00;;;;10463217;28;20182;-75
2022/11/20 11:00:24;;;;;;;29.47;12.47;;;;;9.60;100326.00;;;;10462428;28;20578;-75
2022/11/20 11:05:37;;;;;;;28.60;11.13;;;;;9.90;100339.00;;;;10426556;28;20234;-75
2022/11/20 11:10:54;;;;;;;19.23;8.93;;;;;9.80;100331.00;;;;10438097;28;20236;-74
2022/11/20 11:15:57;;;;;;;16.80;7.13;;;;;9.80;100325.00;;;;10439950;28;20594;-75
2022/11/20 11:21:01;;;;;;;11.97;6.57;;;;;9.90;100318.00;;;;10446090;28;20235;-75
2022/11/20 11:26:07;;;;;;;11.10;6.17;;;;;9.80;100306.00;;;;10461369;28;20552;-75
2022/11/20 11:31:09;;;;;;;7.93;4.27;;;;;9.80;100294.00;;;;10478372;28;20182;-75
2022/11/20 11:36:21;;;;;;;8.63;4.23;;;;;9.70;100285.00;;;;10478052;28;20194;-74
2022/11/20 11:41:28;;;;;;;7.80;3.53;;;;;9.70;100270.00;;;;10444703;28;20684;-75
2022/11/20 11:46:35;;;;;;;6.47;3.20;;;;;9.70;100251.00;;;;10461303;28;20194;-75
2022/11/20 11:52:13;;;;;;;8.43;3.73;;;;;9.90;100248.00;;;;10477476;28;20676;-75
2022/11/20 11:57:33;;;;;;;6.00;2.73;;;;;9.80;100230.00;;;;10461028;28;20563;-75
2022/11/20 12:02:48;;;;;;;5.97;2.90;;;;;9.40;100232.00;;;;10444248;28;20221;-75
2022/11/20 12:08:02;;;;;;;4.80;2.50;;;;;9.00;100219.00;;;;10421096;28;20226;-75
2022/11/20 12:13:39;;;;;;;4.87;2.30;;;;;8.70;100210.00;;;;10452016;28;20190;-75
2022/11/20 12:18:42;;;;;;;8.43;2.80;;;;;8.60;100202.00;;;;10435765;28;20235;-75
2022/11/20 12:24:02;;;;;;;6.10;2.53;;;;;8.40;100201.00;;;;10428033;28;20223;-75
2022/11/20 12:29:08;;;;;;;6.80;2.47;;;;;8.10;100190.00;;;;10474819;28;20193;-75
2022/11/20 12:34:32;;;;;;;8.97;2.43;;;;;7.80;100187.00;;;;10433027;28;20186;-77
2022/11/20 12:39:40;;;;;;;7.87;2.63;;;;;7.60;100176.00;;;;10416888;28;20209;-76
2022/11/20 12:45:09;;;;;;;8.70;2.83;;;;;7.60;100166.00;;;;10417406;28;20186;-76
2022/11/20 12:50:31;;;;;;;8.97;2.87;;;;;7.60;100153.00;;;;10416827;28;20177;-76
2022/11/20 12:56:05;;;;;;;7.63;3.13;;;;;7.70;100134.00;;;;10416771;28;20190;-76
2022/11/20 13:01:42;;;;;;;7.37;2.53;;;;;7.70;100114.00;;;;10400840;28;20210;-76
2022/11/20 13:06:44;;;;;;;8.13;2.80;;;;;7.70;100099.00;;;;10401373;28;20588;-76
2022/11/20 13:12:05;;;;;;;4.43;3.07;;;;;8.00;100087.00;;;;10458248;28;20265;-76
2022/11/20 13:17:16;;;;;;;3.83;3.13;;;;;8.10;100076.00;;;;10474074;28;20197;-76
2022/11/20 13:22:45;;;;;;;7.70;3.47;;;;;8.10;100073.00;;;;10445510;28;20260;-76
2022/11/20 13:27:48;;;;;;;11.53;3.37;;;;;8.10;100054.00;;;;10427264;28;20334;-76
2022/11/20 13:32:52;;;;;;;9.50;3.57;;;;;8.00;100042.00;;;;10464444;28;20216;-76
2022/11/20 13:38:23;;;;;;;4.33;2.67;;;;;7.80;100039.00;;;;10469778;28;20193;-76
2022/11/20 13:43:38;;;;;;;6.13;3.30;;;;;7.80;100019.00;;;;10435311;28;20233;-76
2022/11/20 13:48:43;;;;;;;3.57;2.57;;;;;7.70;99999.00;;;;10447365;28;20552;-76
2022/11/20 13:54:05;;;;;;;4.57;2.47;;;;;7.70;99996.00;;;;10463702;28;20235;-76
2022/11/20 13:59:14;;;;;;;4.23;2.17;;;;;7.70;99987.00;;;;10479963;28;20206;-75
2022/11/20 14:04:21;;;;;;;3.93;2.10;;;;;7.70;99980.00;;;;10453458;28;20221;-76
2022/11/20 14:09:30;;;;;;;4.67;2.50;;;;;7.80;99981.00;;;;10424520;28;20214;-76
2022/11/20 14:14:33;;;;;;;2.20;1.93;;;;;8.00;99979.00;;;;10424411;28;20194;-76
2022/11/20 14:19:37;;;;;;;2.40;1.83;;;;;7.80;99970.00;;;;10427167;28;20208;-76
2022/11/20 14:24:39;;;;;;;2.47;1.63;;;;;7.60;99959.00;;;;10427467;28;20202;-76
2022/11/20 14:29:44;;;;;;;2.30;1.50;;;;;7.50;99965.00;;;;10434432;28;20280;-77
2022/11/20 14:34:49;;;;;;;5.17;2.20;;;;;7.50;99950.00;;;;10457997;28;20186;-76
2022/11/20 14:39:53;;;;;;;4.80;2.30;;;;;7.50;99950.00;;;;10424524;28;20217;-76
2022/11/20 14:44:57;;;;;;;4.47;2.70;;;;;7.60;99933.00;;;;10460252;28;20190;-76
2022/11/20 14:50:00;;;;;;;4.03;2.30;;;;;7.50;99941.00;;;;10453115;28;20239;-76
2022/11/20 14:55:13;;;;;;;3.27;2.53;;;;;7.60;99937.00;;;;10442772;28;20285;-76
2022/11/20 15:00:15;;;;;;;5.57;2.87;;;;;7.60;99924.00;;;;10402304;28;20716;-76
2022/11/20 15:05:22;;;;;;;6.50;3.70;;;;;7.60;99932.00;;;;10445397;28;20217;-77
2022/11/20 15:10:26;;;;;;;4.73;3.30;;;;;7.60;99915.00;;;;10417588;28;20190;-77
2022/11/20 15:15:49;;;;;;;6.13;3.03;;;;;7.60;99913.00;;;;10439336;28;20198;-77
2022/11/20 15:20:52;;;;;;;4.93;3.27;;;;;7.60;99919.00;;;;10422833;28;20214;-77
2022/11/20 15:25:53;;;;;;;4.43;4.03;;;;;7.80;99901.00;;;;10443781;28;20206;-77
2022/11/20 15:30:58;;;;;;;5.20;3.87;;;;;7.80;99912.00;;;;10452885;28;20194;-76
2022/11/20 15:36:00;;;;;;;7.67;3.93;;;;;7.80;99914.00;;;;10434793;28;20198;-76
2022/11/20 15:41:02;;;;;;;6.97;4.37;;;;;7.80;99912.00;;;;10427996;28;20217;-76
2022/11/20 15:46:29;;;;;;;4.70;4.13;;;;;7.80;99929.00;;;;10441965;28;20284;-76
2022/11/20 15:51:34;;;;;;;7.90;4.70;;;;;7.80;99926.00;;;;10433480;28;20301;-76
2022/11/20 15:56:35;;;;;;;7.43;4.17;;;;;7.80;99939.00;;;;10412537;28;20204;-76
2022/11/20 16:01:37;;;;;;;7.57;4.53;;;;;7.80;99935.00;;;;10416093;28;20263;-76
2022/11/20 16:06:40;;;;;;;6.33;4.27;;;;;7.80;99931.00;;;;10445762;28;20691;-76
2022/11/20 16:11:42;;;;;;;9.77;5.10;;;;;7.80;99930.00;;;;10451789;28;20232;-76
2022/11/20 16:16:44;;;;;;;8.40;4.23;;;;;7.80;99938.00;;;;10485538;28;20186;-76
2022/11/20 16:21:46;;;;;;;8.30;4.13;;;;;7.80;99946.00;;;;10448088;28;20210;-76
2022/11/20 16:26:47;;;;;;;4.90;3.47;;;;;7.80;99955.00;;;;10425862;28;20212;-76
2022/11/20 16:31:49;;;;;;;9.57;4.20;;;;;7.70;99957.00;;;;10417256;28;20197;-76
2022/11/20 16:36:51;;;;;;;11.20;3.97;;;;;7.60;99960.00;;;;10421078;28;20735;-76
2022/11/20 16:41:53;;;;;;;10.13;3.03;;;;;7.60;99959.00;;;;10438900;28;20209;-76
2022/11/20 16:46:55;;;;;;;8.70;3.87;;;;;7.60;99963.00;;;;10456682;28;20197;-76
2022/11/20 16:51:57;;;;;;;13.67;3.40;;;;;7.70;99972.00;;;;10414301;28;20624;-76
2022/11/20 16:56:59;;;;;;;19.00;4.37;;;;;7.80;99970.00;;;;10440399;28;20263;-76
2022/11/20 17:02:01;;;;;;;11.37;3.00;;;;;7.70;99964.00;;;;10492601;28;20202;-76
2022/11/20 17:07:02;;;;;;;15.63;3.70;;;;;7.60;99968.00;;;;10447410;28;20583;-76
2022/11/20 17:12:09;;;;;;;17.57;2.70;;;;;7.70;99971.00;;;;10463954;28;20185;-76
2022/11/20 17:17:11;;;;;;;14.17;2.83;;;;;7.60;99981.00;;;;10480564;28;20177;-76
2022/11/20 17:22:13;;;;;;;10.07;2.10;;;;;7.60;99986.00;;;;10480317;28;20220;-76
2022/11/20 17:27:15;;;;;;;6.13;1.83;;;;;7.40;99980.00;;;;10446090;28;20240;-77
2022/11/20 17:32:16;;;;;;;14.70;1.73;;;;;7.20;99961.00;;;;10480463;28;20185;-77
2022/11/20 17:37:18;;;;;;;3.83;1.13;;;;;7.00;100008.00;;;;10463524;28;20579;-77
2022/11/20 17:42:26;;;;;;;7.53;1.40;;;;;6.80;99985.00;;;;10427886;28;20217;-77
2022/11/20 17:47:29;;;;;;;6.50;1.03;;;;;6.70;99989.00;;;;10437199;28;20206;-76
2022/11/20 17:52:31;;;;;;;7.67;1.50;;;;;6.70;99986.00;;;;10438184;28;20668;-76
2022/11/20 18:02:54;;;;;;;13.17;2.03;;;;;6.80;99977.00;;;;10432846;28;20213;-76
2022/11/20 18:07:56;;;;;;;1.70;1.17;;;;;6.80;99977.00;;;;10430773;28;20210;-76
2022/11/20 18:12:58;;;;;;;5.30;1.53;;;;;6.80;99979.00;;;;10443464;28;20657;-76
2022/11/20 18:18:00;;;;;;;4.93;1.57;;;;;6.80;99989.00;;;;10425368;28;20202;-75
2022/11/20 18:23:01;;;;;;;8.63;1.90;;;;;6.80;99996.00;;;;10433637;28;20584;-75
2022/11/20 18:28:03;;;;;;;9.87;1.90;;;;;6.80;99994.00;;;;10449612;28;20231;-76
2022/11/20 18:33:05;;;;;;;7.60;3.20;;;;;6.90;100006.00;;;;10418956;28;20209;-76
2022/11/20 18:38:07;;;;;;;9.17;3.30;;;;;6.80;100000.00;;;;10440315;28;20204;-76
2022/11/20 18:48:31;;;;;;;13.77;4.57;;;;;7.00;100005.00;;;;10433122;28;20536;-76
2022/11/20 18:53:35;;;;;;;17.13;5.70;;;;;7.10;100007.00;;;;10418344;28;20187;-76
2022/11/20 18:58:39;;;;;;;14.23;5.50;;;;;7.30;100013.00;;;;10435424;28;20195;-76
2022/11/20 19:03:42;;;;;;;18.83;4.93;;;;;7.30;100017.00;;;;10447813;28;20210;-75
2022/11/20 19:08:44;;;;;;;14.77;5.37;;;;;7.30;100022.00;;;;10424643;28;20679;-76
2022/11/20 19:13:46;;;;;;;16.90;5.57;;;;;7.30;100016.00;;;;10432133;28;20196;-75
2022/11/20 19:18:49;;;;;;;17.00;4.40;;;;;7.30;100012.00;;;;10395657;28;20198;-76
2022/11/20 19:23:53;;;;;;;11.73;3.97;;;;;7.30;100007.00;;;;10477573;28;20753;-76
2022/11/20 19:28:55;;;;;;;18.07;4.07;;;;;7.20;100020.00;;;;10417135;28;20292;-75
2022/11/20 19:33:59;;;;;;;11.33;3.87;;;;;7.10;100022.00;;;;10419459;28;20193;-75
2022/11/20 19:39:04;;;;;;;10.00;3.17;;;;;7.10;100024.00;;;;10427722;28;20676;-75
2022/11/20 19:44:08;;;;;;;17.33;3.83;;;;;7.10;100019.00;;;;10441394;28;20240;-76
2022/11/20 19:49:12;;;;;;;19.17;4.80;;;;;7.20;100022.00;;;;10441592;28;20660;-75
2022/11/20 19:54:15;;;;;;;15.23;4.30;;;;;7.10;100021.00;;;;10417891;28;20198;-76
2022/11/20 19:59:17;;;;;;;17.17;4.80;;;;;7.10;100025.00;;;;10420195;28;20198;-75
2022/11/20 20:04:19;;;;;;;18.57;5.23;;;;;7.10;100029.00;;;;10447154;28;20260;-75
2022/11/20 20:09:22;;;;;;;12.70;4.37;;;;;7.10;100027.00;;;;10416156;28;20236;-75
2022/11/20 20:14:25;;;;;;;21.40;4.67;;;;;7.20;100029.00;;;;10432222;28;20175;-76
2022/11/20 20:19:27;;;;;;;16.33;5.10;;;;;7.10;100030.00;;;;10446361;28;20201;-75
2022/11/20 20:24:29;;;;;;;12.97;4.50;;;;;7.00;100039.00;;;;10426293;28;20306;-75
2022/11/20 20:29:31;;;;;;;16.30;5.03;;;;;6.90;100046.00;;;;10429608;28;20845;-75
2022/11/20 20:34:32;;;;;;;17.07;4.47;;;;;6.80;100052.00;;;;10460608;28;20196;-75
2022/11/20 20:39:34;;;;;;;11.83;4.90;;;;;6.70;100044.00;;;;10481344;28;20198;-75
2022/11/20 20:49:57;;;;;;;16.00;3.57;;;;;6.60;100053.00;;;;10458340;28;20580;-75
2022/11/20 20:54:59;;;;;;;21.43;4.63;;;;;6.50;100065.00;;;;10448535;28;20232;-75
2022/11/20 21:00:01;;;;;;;8.50;3.60;;;;;6.50;100057.00;;;;10453092;28;20720;-75
2022/11/20 21:05:03;;;;;;;14.10;5.90;;;;;6.50;100074.00;;;;10455783;28;20284;-75
2022/11/20 21:10:05;;;;;;;14.30;3.40;;;;;6.50;100065.00;;;;10480897;28;20190;-75
2022/11/20 21:15:07;;;;;;;17.30;4.40;;;;;6.40;100069.00;;;;10459246;28;20200;-75
2022/11/20 21:21:57;;;;;;;17.90;5.20;;;;;6.40;100069.00;;;;10442666;28;20206;-75
2022/11/20 21:25:35;;;;;;;14.53;3.90;;;;;6.40;100076.00;;;;10463129;28;20656;-75
2022/11/20 21:30:37;;;;;;;15.07;3.53;;;;;6.40;100077.00;;;;10479304;28;20553;-75
2022/11/20 21:35:40;;;;;;;14.77;3.00;;;;;6.40;100090.00;;;;10459062;28;20202;-75
2022/11/20 21:40:42;;;;;;;9.47;3.53;;;;;6.40;100086.00;;;;10443587;28;20198;-75
2022/11/20 21:45:44;;;;;;;8.77;3.90;;;;;6.40;100089.00;;;;10451178;28;20247;-75
2022/11/20 21:50:46;;;;;;;13.77;3.80;;;;;6.30;100097.00;;;;10460332;28;20581;-75
2022/11/20 21:55:54;;;;;;;12.03;4.40;;;;;6.20;100101.00;;;;10454793;28;20194;-75
2022/11/20 22:00:57;;;;;;;13.43;4.23;;;;;6.10;100096.00;;;;10461822;28;20743;-75
2022/11/20 22:05:58;;;;;;;14.53;4.13;;;;;6.00;100101.00;;;;10447022;28;20275;-75
2022/11/20 22:11:03;;;;;;;12.07;3.60;;;;;6.00;100102.00;;;;10420126;28;20679;-75
2022/11/20 22:16:05;;;;;;;23.43;4.13;;;;;6.00;100107.00;;;;10449592;28;20304;-75
2022/11/20 22:21:07;;;;;;;7.27;3.73;;;;;5.90;100113.00;;;;10446800;28;20245;-75
2022/11/20 22:26:11;;;;;;;10.87;4.53;;;;;5.80;100098.00;;;;10404004;28;20240;-75
2022/11/20 22:31:13;;;;;;;10.30;3.83;;;;;5.70;100104.00;;;;10427710;28;20179;-75
2022/11/20 22:36:20;;;;;;;12.07;2.70;;;;;5.80;100112.00;;;;10446978;28;20583;-75
2022/11/20 22:41:27;;;;;;;10.97;3.80;;;;;5.80;100117.00;;;;10387301;28;20317;-75
2022/11/20 22:46:34;;;;;;;14.13;3.20;;;;;5.80;100127.00;;;;10419303;28;20240;-76
2022/11/20 22:51:39;;;;;;;12.63;3.57;;;;;5.80;100127.00;;;;10454933;28;20194;-76
2022/11/20 22:56:41;;;;;;;9.53;3.03;;;;;5.70;100120.00;;;;10412943;28;20190;-76
2022/11/20 23:01:43;;;;;;;10.80;3.03;;;;;5.70;100121.00;;;;10436330;28;20218;-76
2022/11/20 23:06:45;;;;;;;8.87;2.83;;;;;5.70;100128.00;;;;10423556;28;20214;-76
2022/11/20 23:11:47;;;;;;;7.67;2.33;;;;;5.60;100137.00;;;;10418059;28;20183;-76
2022/11/20 23:16:49;;;;;;;5.57;1.83;;;;;5.70;100144.00;;;;10458923;28;20207;-76
2022/11/20 23:21:50;;;;;;;5.17;1.37;;;;;5.90;100147.00;;;;10474814;28;20576;-76
2022/11/20 23:26:52;;;;;;;5.23;1.50;;;;;6.10;100148.00;;;;10475700;28;20610;-76
2022/11/20 23:31:54;;;;;;;2.57;0.90;;;;;6.20;100145.00;;;;10411573;28;20221;-76
2022/11/20 23:36:56;;;;;;;1.23;0.70;;;;;6.30;100154.00;;;;10449777;28;20240;-76
2022/11/20 23:41:58;;;;;;;3.00;0.43;;;;;6.10;100146.00;;;;10450167;28;20221;-76
2022/11/20 23:47:00;;;;;;;0.93;0.60;;;;;6.00;100147.00;;;;10439875;28;20225;-77
2022/11/20 23:52:02;;;;;;;2.10;0.80;;;;;5.80;100131.00;;;;10435992;28;20186;-78
2022/11/20 23:57:04;;;;;;;2.10;0.83;;;;;5.70;100129.00;;;;10417972;28;20247;-78
